createdAt,value
2018-09-22T00:02:11.877Z,100411.31
2018-09-22T00:04:40.856Z,100412.02
2018-09-22T00:07:09.858Z,100414.73
2018-09-22T00:09:38.842Z,100407.84
2018-09-22T00:12:07.830Z,100421.73
2018-09-22T00:14:36.798Z,100414.50
2018-09-22T00:17:05.894Z,100422.33
2018-09-22T00:19:34.942Z,100424.70
2018-09-22T00:22:03.930Z,100426.45
2018-09-22T00:24:32.906Z,100426.72
2018-09-22T00:27:01.890Z,100431.06
2018-09-22T00:29:30.897Z,100429.19
2018-09-22T00:31:59.887Z,100429.52
2018-09-22T00:34:29.090Z,100436.38
2018-09-22T00:36:58.076Z,100438.52
2018-09-22T00:39:27.042Z,100440.20
2018-09-22T00:41:56.026Z,100440.20
2018-09-22T00:44:25.046Z,100446.02
2018-09-22T00:46:54.010Z,100453.48
2018-09-22T00:49:23.097Z,100442.58
2018-09-22T00:51:52.082Z,100447.05
2018-09-22T00:54:21.079Z,100445.45
2018-09-22T00:56:50.053Z,100453.23
2018-09-22T00:59:19.214Z,100463.08
2018-09-22T01:01:48.185Z,100457.63
2018-09-22T01:04:17.181Z,100459.44
2018-09-22T01:06:46.186Z,100462.85
2018-09-22T01:09:15.176Z,100470.48
2018-09-22T01:11:44.154Z,100469.56
2018-09-22T01:14:13.135Z,100475.11
2018-09-22T01:16:42.127Z,100476.41
2018-09-22T01:19:11.109Z,100483.30
2018-09-22T01:21:40.085Z,100465.17
2018-09-22T01:24:09.070Z,100478.89
2018-09-22T01:26:38.052Z,100477.39
2018-09-22T01:29:07.049Z,100488.06
2018-09-22T01:31:36.038Z,100487.33
2018-09-22T01:34:05.021Z,100494.69
2018-09-22T01:36:41.445Z,100490.25
2018-09-22T01:39:11.177Z,100503.41
2018-09-22T01:41:41.066Z,100511.80
2018-09-22T01:44:10.148Z,100493.02
2018-09-22T01:46:39.173Z,100497.58
2018-09-22T01:49:08.245Z,100484.66
2018-09-22T01:51:37.230Z,100487.14
2018-09-22T01:54:06.221Z,100486.56
2018-09-22T01:56:35.288Z,100501.63
2018-09-22T01:59:04.294Z,100495.34
2018-09-22T02:01:33.361Z,100491.75
2018-09-22T02:04:02.366Z,100492.48
2018-09-22T02:06:31.341Z,100487.50
2018-09-22T02:09:00.364Z,100498.18
2018-09-22T02:11:29.394Z,100506.34
2018-09-22T02:13:58.360Z,100502.09
2018-09-22T02:16:27.350Z,100500.19
2018-09-22T02:18:56.341Z,100516.31
2018-09-22T02:21:25.354Z,100517.11
2018-09-22T02:23:54.335Z,100510.86
2018-09-22T02:26:23.354Z,100509.05
2018-09-22T02:28:52.343Z,100506.20
2018-09-22T02:31:21.313Z,100509.98
2018-09-22T02:33:50.287Z,100509.03
2018-09-22T02:36:25.790Z,100509.60
2018-09-22T02:38:54.771Z,100512.80
2018-09-22T02:41:23.755Z,100516.67
2018-09-22T02:43:52.782Z,100515.90
2018-09-22T02:46:21.757Z,100510.81
2018-09-22T02:48:50.734Z,100517.41
2018-09-22T02:51:19.767Z,100520.02
2018-09-22T02:53:48.749Z,100510.30
2018-09-22T02:56:17.727Z,100510.74
2018-09-22T02:58:46.722Z,100520.34
2018-09-22T03:01:15.734Z,100515.80
2018-09-22T03:03:44.672Z,100523.52
2018-09-22T03:06:13.666Z,100526.28
2018-09-22T03:08:42.687Z,100527.21
2018-09-22T03:11:11.626Z,100524.98
2018-09-22T03:13:40.650Z,100530.23
2018-09-22T03:16:09.613Z,100532.69
2018-09-22T03:18:38.638Z,100543.35
2018-09-22T03:21:07.631Z,100551.30
2018-09-22T03:23:36.606Z,100555.83
2018-09-22T03:26:05.574Z,100553.39
2018-09-22T03:28:34.546Z,100560.19
2018-09-22T03:31:03.550Z,100559.45
2018-09-22T03:33:32.510Z,100554.58
2018-09-22T03:36:01.499Z,100535.25
2018-09-22T03:38:30.470Z,100535.70
2018-09-22T03:40:59.457Z,100536.39
2018-09-22T03:43:28.433Z,100532.15
2018-09-22T03:45:57.533Z,100527.43
2018-09-22T03:48:26.498Z,100529.47
2018-09-22T03:50:55.473Z,100527.27
2018-09-22T03:53:24.837Z,100530.19
2018-09-22T03:55:53.777Z,100522.34
2018-09-22T03:58:22.747Z,100528.73
2018-09-22T04:00:51.724Z,100530.41
2018-09-22T04:03:20.725Z,100525.19
2018-09-22T04:05:49.789Z,100518.14
2018-09-22T04:08:18.770Z,100515.73
2018-09-22T04:10:47.797Z,100515.35
2018-09-22T04:13:16.753Z,100527.12
2018-09-22T04:15:45.766Z,100535.59
2018-09-22T04:18:14.732Z,100530.28
2018-09-22T04:20:43.741Z,100544.59
2018-09-22T04:23:12.713Z,100539.53
2018-09-22T04:25:41.697Z,100533.11
2018-09-22T04:28:10.670Z,100530.88
2018-09-22T04:30:39.650Z,100531.96
2018-09-22T04:33:08.631Z,100533.27
2018-09-22T04:35:37.610Z,100534.94
2018-09-22T04:38:06.582Z,100534.78
2018-09-22T04:40:35.591Z,100536.86
2018-09-22T04:43:04.558Z,100539.00
2018-09-22T04:45:34.538Z,100535.16
2018-09-22T04:48:03.523Z,100537.23
2018-09-22T04:50:32.497Z,100534.17
2018-09-22T04:53:01.477Z,100530.50
2018-09-22T04:55:30.450Z,100538.48
2018-09-22T04:57:59.418Z,100538.45
2018-09-22T05:00:28.411Z,100533.48
2018-09-22T05:02:57.391Z,100528.52
2018-09-22T05:05:26.397Z,100534.94
2018-09-22T05:07:55.461Z,100543.69
2018-09-22T05:10:24.446Z,100544.75
2018-09-22T05:12:53.446Z,100550.40
2018-09-22T05:15:22.602Z,100561.07
2018-09-22T05:17:51.577Z,100565.39
2018-09-22T05:20:20.640Z,100568.09
2018-09-22T05:22:49.606Z,100582.70
2018-09-22T05:25:18.587Z,100573.08
2018-09-22T05:27:47.565Z,100596.67
2018-09-22T05:30:16.557Z,100591.98
2018-09-22T05:32:45.607Z,100600.64
2018-09-22T05:35:14.585Z,100605.89
2018-09-22T05:37:43.666Z,100608.41
2018-09-22T05:40:12.690Z,100604.37
2018-09-22T05:42:41.750Z,100603.66
2018-09-22T05:45:10.754Z,100605.02
2018-09-22T05:47:39.741Z,100609.00
2018-09-22T05:50:08.725Z,100615.86
2018-09-22T05:52:37.754Z,100617.45
2018-09-22T05:55:06.722Z,100617.29
2018-09-22T05:57:35.814Z,100631.72
2018-09-22T06:00:04.966Z,100642.84
2018-09-22T06:02:33.946Z,100639.59
2018-09-22T06:05:02.939Z,100639.74
2018-09-22T06:07:31.941Z,100639.74
2018-09-22T06:10:01.011Z,100649.59
2018-09-22T06:12:30.245Z,100647.41
2018-09-22T06:14:59.205Z,100639.70
2018-09-22T06:17:28.222Z,100645.61
2018-09-22T06:19:57.185Z,100646.04
2018-09-22T06:22:26.168Z,100647.78
2018-09-22T06:24:55.137Z,100646.75
2018-09-22T06:27:24.171Z,100636.63
2018-09-22T06:29:53.169Z,100648.87
2018-09-22T06:32:22.162Z,100665.23
2018-09-22T06:34:51.167Z,100667.34
2018-09-22T06:37:20.151Z,100665.97
2018-09-22T06:39:49.121Z,100664.66
2018-09-22T06:42:18.109Z,100671.95
2018-09-22T06:44:47.086Z,100666.42
2018-09-22T06:47:16.079Z,100663.53
2018-09-22T06:49:45.050Z,100656.66
2018-09-22T06:52:14.062Z,100658.63
2018-09-22T06:54:43.027Z,100671.83
2018-09-22T06:57:11.982Z,100676.38
2018-09-22T06:59:40.953Z,100670.36
2018-09-22T07:02:09.937Z,100669.78
2018-09-22T07:04:39.368Z,100675.08
2018-09-22T07:07:09.243Z,100662.45
2018-09-22T07:09:38.278Z,100673.86
2018-09-22T07:12:07.373Z,100671.97
2018-09-22T07:14:36.357Z,100668.44
2018-09-22T07:17:05.339Z,100675.02
2018-09-22T07:19:34.382Z,100663.08
2018-09-22T07:22:08.499Z,100656.50
2018-09-22T07:24:37.469Z,100652.95
2018-09-22T07:27:06.450Z,100652.66
2018-09-22T07:29:35.446Z,100659.89
2018-09-22T07:32:04.443Z,100657.05
2018-09-22T07:34:33.433Z,100659.80
2018-09-22T07:37:02.521Z,100655.64
2018-09-22T07:39:31.504Z,100657.28
2018-09-22T07:42:00.469Z,100636.86
2018-09-22T07:44:29.441Z,100645.06
2018-09-22T07:46:58.445Z,100642.92
2018-09-22T07:49:27.845Z,100634.27
2018-09-22T07:51:56.885Z,100643.52
2018-09-22T07:54:25.945Z,100643.97
2018-09-22T07:56:54.979Z,100649.95
2018-09-22T07:59:23.958Z,100649.59
2018-09-22T08:01:52.981Z,100656.60
2018-09-22T08:04:22.046Z,100659.83
2018-09-22T08:06:51.054Z,100661.34
2018-09-22T08:09:20.084Z,100668.63
2018-09-22T08:11:49.226Z,100675.74
2018-09-22T08:14:18.161Z,100674.19
2018-09-22T08:16:47.429Z,100678.38
2018-09-22T08:19:16.427Z,100682.52
2018-09-22T08:21:45.413Z,100685.39
2018-09-22T08:24:14.425Z,100687.64
2018-09-22T08:26:43.497Z,100694.55
2018-09-22T08:29:12.624Z,100697.66
2018-09-22T08:31:41.690Z,100697.84
2018-09-22T08:34:10.687Z,100697.03
2018-09-22T08:36:39.846Z,100700.42
2018-09-22T08:39:09.928Z,100688.53
2018-09-22T08:41:38.938Z,100694.97
2018-09-22T08:44:08.101Z,100701.87
2018-09-22T08:46:37.325Z,100697.04
2018-09-22T08:49:06.541Z,100682.59
2018-09-22T08:51:35.760Z,100686.47
2018-09-22T08:54:04.797Z,100693.25
2018-09-22T08:56:33.774Z,100690.63
2018-09-22T08:59:02.775Z,100697.55
2018-09-22T09:01:31.762Z,100691.21
2018-09-22T09:04:00.815Z,100675.05
2018-09-22T09:06:29.815Z,100681.30
2018-09-22T09:08:58.881Z,100679.69
2018-09-22T09:11:27.974Z,100670.95
2018-09-22T09:13:56.890Z,100659.25
2018-09-22T09:16:25.870Z,100675.69
2018-09-22T09:18:55.121Z,100675.38
2018-09-22T09:21:24.106Z,100671.74
2018-09-22T09:23:53.139Z,100667.97
2018-09-22T09:26:22.186Z,100679.78
2018-09-22T09:28:51.164Z,100675.14
2018-09-22T09:31:20.174Z,100668.20
2018-09-22T09:33:49.786Z,100677.37
2018-09-22T09:36:19.159Z,100665.34
2018-09-22T09:38:48.152Z,100663.00
2018-09-22T09:41:17.146Z,100632.09
2018-09-22T09:43:46.176Z,100623.66
2018-09-22T09:46:15.114Z,100618.97
2018-09-22T09:48:44.108Z,100626.91
2018-09-22T09:51:13.089Z,100617.98
2018-09-22T09:53:42.082Z,100606.07
2018-09-22T09:56:11.097Z,100603.34
2018-09-22T09:58:40.080Z,100607.00
2018-09-22T10:01:09.154Z,100622.77
2018-09-22T10:03:38.161Z,100617.33
2018-09-22T10:06:07.229Z,100604.63
2018-09-22T10:08:36.225Z,100624.63
2018-09-22T10:11:05.370Z,100621.72
2018-09-22T10:13:34.399Z,100607.48
2018-09-22T10:16:03.390Z,100608.77
2018-09-22T10:18:32.413Z,100605.25
2018-09-22T10:21:01.397Z,100603.58
2018-09-22T10:23:30.541Z,100600.23
2018-09-22T10:25:59.538Z,100604.77
2018-09-22T10:28:28.579Z,100591.48
2018-09-22T10:30:57.550Z,100587.47
2018-09-22T10:33:26.545Z,100587.08
2018-09-22T10:35:55.803Z,100584.98
2018-09-22T10:38:24.807Z,100583.30
2018-09-22T10:40:53.781Z,100581.61
2018-09-22T10:43:22.781Z,100591.18
2018-09-22T10:45:51.757Z,100582.36
2018-09-22T10:48:20.745Z,100571.47
2018-09-22T10:50:49.784Z,100564.77
2018-09-22T10:53:18.759Z,100563.41
2018-09-22T10:55:47.771Z,100561.78
2018-09-22T10:58:16.717Z,100541.14
2018-09-22T11:00:45.718Z,100549.21
2018-09-22T11:03:14.716Z,100545.09
2018-09-22T11:05:43.705Z,100531.57
2018-09-22T11:08:12.685Z,100525.83
2018-09-22T11:10:41.701Z,100516.15
2018-09-22T11:13:10.734Z,100525.33
2018-09-22T11:15:39.690Z,100512.20
2018-09-22T11:18:15.154Z,100519.31
2018-09-22T11:20:44.161Z,100522.34
2018-09-22T11:23:13.138Z,100522.02
2018-09-22T11:25:42.121Z,100525.17
2018-09-22T11:28:11.157Z,100523.30
2018-09-22T11:30:40.142Z,100533.52
2018-09-22T11:33:09.146Z,100536.47
2018-09-22T11:35:38.129Z,100531.77
2018-09-22T11:38:07.115Z,100535.64
2018-09-22T11:40:36.097Z,100526.08
2018-09-22T11:43:05.074Z,100534.61
2018-09-22T11:45:34.061Z,100515.55
2018-09-22T11:48:03.037Z,100507.23
2018-09-22T11:50:32.101Z,100489.91
2018-09-22T11:53:01.084Z,100476.36
2018-09-22T11:55:30.071Z,100493.97
2018-09-22T11:57:59.063Z,100490.63
2018-09-22T12:00:28.060Z,100494.70
2018-09-22T12:02:57.042Z,100497.13
2018-09-22T12:05:26.040Z,100493.28
2018-09-22T12:07:55.005Z,100493.06
2018-09-22T12:10:24.006Z,100486.78
2018-09-22T12:12:52.978Z,100462.09
2018-09-22T12:15:21.974Z,100437.39
2018-09-22T12:17:51.085Z,100456.28
2018-09-22T12:20:20.078Z,100489.32
2018-09-22T12:22:49.069Z,100476.36
2018-09-22T12:25:18.086Z,100480.70
2018-09-22T12:27:47.157Z,100469.33
2018-09-22T12:30:16.166Z,100475.16
2018-09-22T12:32:45.153Z,100454.17
2018-09-22T12:35:14.190Z,100444.25
2018-09-22T12:37:43.173Z,100435.16
2018-09-22T12:40:12.219Z,100432.73
2018-09-22T12:42:41.212Z,100414.39
2018-09-22T12:45:10.208Z,100422.47
2018-09-22T12:47:39.174Z,100421.11
2018-09-22T12:50:08.189Z,100421.36
2018-09-22T12:52:37.192Z,100417.87
2018-09-22T12:55:06.181Z,100409.84
2018-09-22T12:57:35.246Z,100417.89
2018-09-22T13:00:04.263Z,100420.05
2018-09-22T13:02:33.269Z,100415.31
2018-09-22T13:05:02.270Z,100432.31
2018-09-22T13:07:31.255Z,100422.81
2018-09-22T13:10:00.632Z,100429.16
2018-09-22T13:12:29.618Z,100426.41
2018-09-22T13:14:58.667Z,100420.80
2018-09-22T13:17:27.678Z,100397.98
2018-09-22T13:19:57.419Z,100427.22
2018-09-22T13:22:26.414Z,100415.59
2018-09-22T13:24:55.389Z,100416.98
2018-09-22T13:27:24.401Z,100414.96
2018-09-22T13:29:53.382Z,100392.28
2018-09-22T13:32:22.373Z,100399.53
2018-09-22T13:34:51.377Z,100395.58
2018-09-22T13:37:20.417Z,100393.60
2018-09-22T13:39:49.326Z,100398.08
2018-09-22T13:42:18.538Z,100393.55
2018-09-22T13:44:47.517Z,100409.98
2018-09-22T13:47:16.527Z,100402.78
2018-09-22T13:49:45.492Z,100403.98
2018-09-22T13:52:14.482Z,100415.53
2018-09-22T13:54:43.464Z,100412.08
2018-09-22T13:57:12.450Z,100397.54
2018-09-22T13:59:41.437Z,100397.41
2018-09-22T14:02:10.533Z,100390.79
2018-09-22T14:04:39.506Z,100379.81
2018-09-22T14:07:08.521Z,100380.28
2018-09-22T14:09:37.505Z,100362.86
2018-09-22T14:12:06.757Z,100387.34
2018-09-22T14:14:35.815Z,100390.73
2018-09-22T14:17:04.874Z,100372.63
2018-09-22T14:19:33.846Z,100380.20
2018-09-22T14:22:02.964Z,100376.41
2018-09-22T14:24:31.938Z,100368.56
2018-09-22T14:27:01.002Z,100383.45
2018-09-22T14:29:30.041Z,100383.41
2018-09-22T14:31:58.981Z,100360.02
2018-09-22T14:34:27.961Z,100364.16
2018-09-22T14:36:56.997Z,100351.02
2018-09-22T14:39:25.970Z,100342.29
2018-09-22T14:41:54.964Z,100332.88
2018-09-22T14:44:24.002Z,100330.41
2018-09-22T14:46:52.986Z,100335.36
2018-09-22T14:49:22.015Z,100333.73
2018-09-22T14:51:51.002Z,100335.13
2018-09-22T14:54:20.001Z,100335.78
2018-09-22T14:56:48.977Z,100339.84
2018-09-22T14:59:18.014Z,100355.47
2018-09-22T15:01:46.998Z,100347.39
2018-09-22T15:04:15.986Z,100339.63
2018-09-22T15:06:44.982Z,100337.11
2018-09-22T15:09:13.995Z,100348.34
2018-09-22T15:11:42.986Z,100348.94
2018-09-22T15:14:11.965Z,100333.41
2018-09-22T15:16:40.958Z,100328.05
2018-09-22T15:19:09.945Z,100329.63
2018-09-22T15:21:38.934Z,100326.02
2018-09-22T15:24:07.930Z,100327.73
2018-09-22T15:26:36.921Z,100323.36
2018-09-22T15:29:05.960Z,100318.61
2018-09-22T15:31:35.017Z,100307.66
2018-09-22T15:34:03.966Z,100316.08
2018-09-22T15:36:32.975Z,100305.73
2018-09-22T15:39:01.981Z,100298.75
2018-09-22T15:41:31.082Z,100298.41
2018-09-22T15:44:00.130Z,100303.30
2018-09-22T15:46:29.148Z,100304.55
2018-09-22T15:48:58.129Z,100296.66
2018-09-22T15:51:28.256Z,100294.39
2018-09-22T15:53:58.118Z,100293.53
2018-09-22T15:56:27.105Z,100285.17
2018-09-22T15:58:56.120Z,100297.28
2018-09-22T16:01:25.097Z,100293.61
2018-09-22T16:03:54.098Z,100282.41
2018-09-22T16:06:23.089Z,100276.77
2018-09-22T16:08:52.989Z,100284.56
2018-09-22T16:11:21.958Z,100276.48
2018-09-22T16:13:50.954Z,100269.21
2018-09-22T16:16:19.986Z,100275.06
2018-09-22T16:18:48.981Z,100276.90
2018-09-22T16:21:17.965Z,100276.73
2018-09-22T16:23:46.999Z,100278.06
2018-09-22T16:26:15.973Z,100276.14
2018-09-22T16:28:44.970Z,100279.74
2018-09-22T16:31:13.949Z,100288.56
2018-09-22T16:33:42.938Z,100284.92
2018-09-22T16:36:11.929Z,100286.06
2018-09-22T16:38:41.036Z,100276.89
2018-09-22T16:41:10.070Z,100275.17
2018-09-22T16:43:39.625Z,100280.78
2018-09-22T16:46:08.659Z,100288.68
2018-09-22T16:48:37.715Z,100298.13
2018-09-22T16:51:06.645Z,100293.51
2018-09-22T16:53:35.633Z,100297.77
2018-09-22T16:56:04.646Z,100300.70
2018-09-22T16:58:33.700Z,100295.64
2018-09-22T17:01:02.619Z,100297.38
2018-09-22T17:03:31.601Z,100292.62
2018-09-22T17:06:00.579Z,100300.15
2018-09-22T17:08:29.571Z,100298.30
2018-09-22T17:10:58.536Z,100311.88
2018-09-22T17:13:27.569Z,100311.71
2018-09-22T17:15:56.539Z,100307.75
2018-09-22T17:18:25.558Z,100311.95
2018-09-22T17:20:54.538Z,100307.98
2018-09-22T17:23:23.533Z,100311.87
2018-09-22T17:25:52.518Z,100309.59
2018-09-22T17:28:21.522Z,100312.77
2018-09-22T17:30:50.758Z,100306.62
2018-09-22T17:33:19.796Z,100309.20
2018-09-22T17:35:48.761Z,100310.97
2018-09-22T17:38:17.746Z,100313.38
2018-09-22T17:40:46.724Z,100320.53
2018-09-22T17:43:15.781Z,100326.02
2018-09-22T17:45:44.702Z,100329.23
2018-09-22T17:48:13.701Z,100329.49
2018-09-22T17:50:42.669Z,100333.05
2018-09-22T17:53:11.664Z,100333.78
2018-09-22T17:55:41.014Z,100338.71
2018-09-22T17:58:10.003Z,100335.85
2018-09-22T18:00:39.002Z,100339.11
2018-09-22T18:03:08.009Z,100359.33
2018-09-22T18:05:36.989Z,100362.27
2018-09-22T18:08:06.094Z,100366.05
2018-09-22T18:10:35.078Z,100360.89
2018-09-22T18:13:04.071Z,100348.46
2018-09-22T18:15:33.134Z,100330.80
2018-09-22T18:18:02.122Z,100324.33
2018-09-22T18:20:31.138Z,100327.19
2018-09-22T18:23:00.133Z,100326.04
2018-09-22T18:25:29.135Z,100325.11
2018-09-22T18:27:58.128Z,100324.63
2018-09-22T18:30:27.152Z,100331.53
2018-09-22T18:32:56.133Z,100327.61
2018-09-22T18:35:25.122Z,100328.68
2018-09-22T18:37:54.092Z,100331.43
2018-09-22T18:40:23.183Z,100323.95
2018-09-22T18:42:52.146Z,100334.63
2018-09-22T18:45:21.134Z,100341.86
2018-09-22T18:47:50.113Z,100337.12
2018-09-22T18:50:19.085Z,100337.73
2018-09-22T18:52:48.069Z,100341.28
2018-09-22T18:55:17.193Z,100345.42
2018-09-22T18:57:46.189Z,100335.94
2018-09-22T19:00:15.198Z,100340.56
2018-09-22T19:02:44.209Z,100334.88
2018-09-22T19:05:13.201Z,100315.65
2018-09-22T19:07:42.523Z,100314.10
2018-09-22T19:10:11.511Z,100315.65
2018-09-22T19:12:40.585Z,100327.61
2018-09-22T19:15:44.417Z,100324.20
2018-09-22T19:19:16.615Z,100319.33
2018-09-22T19:21:53.954Z,100329.53
2018-09-22T19:24:26.921Z,100339.50
2018-09-22T19:27:00.697Z,100339.38
2018-09-22T19:29:34.355Z,100339.73
2018-09-22T19:32:21.669Z,100333.20
2018-09-22T19:34:54.850Z,100341.28
2018-09-22T19:37:27.354Z,100343.52
2018-09-22T19:40:14.582Z,100344.83
2018-09-22T19:42:48.390Z,100353.97
2018-09-22T19:45:20.582Z,100353.27
2018-09-22T19:47:59.193Z,100340.68
2018-09-22T19:50:32.865Z,100340.44
2018-09-22T19:53:01.890Z,100337.23
2018-09-22T19:55:30.893Z,100348.85
2018-09-22T19:57:59.970Z,100346.24
2018-09-22T20:00:28.871Z,100346.27
2018-09-22T20:02:57.859Z,100352.06
2018-09-22T20:05:26.840Z,100339.02
2018-09-22T20:07:55.814Z,100334.98
2018-09-22T20:10:24.790Z,100339.73
2018-09-22T20:12:53.764Z,100341.74
2018-09-22T20:15:22.742Z,100342.92
2018-09-22T20:17:51.826Z,100335.83
2018-09-22T20:20:20.808Z,100331.19
2018-09-22T20:22:49.794Z,100330.24
2018-09-22T20:25:18.773Z,100326.92
2018-09-22T20:27:47.789Z,100328.00
2018-09-22T20:30:16.789Z,100333.78
2018-09-22T20:32:45.837Z,100332.72
2018-09-22T20:35:14.809Z,100334.61
2018-09-22T20:37:44.377Z,100338.28
2018-09-22T20:40:13.346Z,100338.42
2018-09-22T20:42:42.422Z,100326.19
2018-09-22T20:45:12.408Z,100309.45
2018-09-22T20:47:41.470Z,100311.46
2018-09-22T20:50:10.582Z,100307.78
2018-09-22T20:52:39.653Z,100309.80
2018-09-22T20:55:08.621Z,100310.16
2018-09-22T20:57:37.613Z,100315.84
2018-09-22T21:00:07.699Z,100320.09
2018-09-22T21:02:36.711Z,100323.07
2018-09-22T21:05:05.702Z,100308.98
2018-09-22T21:07:35.006Z,100297.95
2018-09-22T21:10:04.137Z,100289.08
2018-09-22T21:12:33.131Z,100293.33
2018-09-22T21:15:02.102Z,100290.84
2018-09-22T21:17:31.098Z,100298.67
2018-09-22T21:20:00.075Z,100308.98
2018-09-22T21:22:29.066Z,100310.42
2018-09-22T21:24:58.154Z,100310.42
2018-09-22T21:27:27.178Z,100301.39
2018-09-22T21:29:56.154Z,100299.98
2018-09-22T21:32:25.130Z,100296.18
2018-09-22T21:34:54.104Z,100296.41
2018-09-22T21:37:23.089Z,100286.91
2018-09-22T21:39:52.057Z,100282.90
2018-09-22T21:42:21.166Z,100279.56
2018-09-22T21:44:50.158Z,100284.31
2018-09-22T21:47:19.138Z,100286.08
2018-09-22T21:49:48.510Z,100281.83
2018-09-22T21:52:17.526Z,100281.47
2018-09-22T21:54:46.542Z,100283.01
2018-09-22T21:57:15.513Z,100276.02
2018-09-22T21:59:44.832Z,100276.71
2018-09-22T22:02:13.894Z,100284.31
2018-09-22T22:04:42.861Z,100280.30
2018-09-22T22:07:11.849Z,100287.98
2018-09-22T22:09:40.824Z,100282.66
2018-09-22T22:12:09.802Z,100280.86
2018-09-22T22:14:38.790Z,100282.17
2018-09-22T22:17:07.781Z,100281.83
2018-09-22T22:19:36.773Z,100276.95
2018-09-22T22:22:05.832Z,100280.27
2018-09-22T22:24:34.946Z,100271.73
2018-09-22T22:27:03.995Z,100263.20
2018-09-22T22:29:32.969Z,100263.91
2018-09-22T22:32:02.145Z,100247.92
2018-09-22T22:34:31.230Z,100248.49
2018-09-22T22:37:00.274Z,100252.40
2018-09-22T22:39:29.250Z,100246.02
2018-09-22T22:41:58.281Z,100257.85
2018-09-22T22:44:27.316Z,100262.03
2018-09-22T22:46:56.244Z,100258.81
2018-09-22T22:49:25.251Z,100258.34
2018-09-22T22:51:54.230Z,100258.12
2018-09-22T22:54:23.261Z,100262.36
2018-09-22T22:56:52.273Z,100261.67
2018-09-22T22:59:21.257Z,100263.91
2018-09-22T23:01:50.341Z,100249.67
2018-09-22T23:04:19.325Z,100252.17
2018-09-22T23:06:48.406Z,100252.52
2018-09-22T23:09:17.393Z,100244.22
2018-09-22T23:11:46.581Z,100243.53
2018-09-22T23:14:15.555Z,100248.86
2018-09-22T23:16:44.513Z,100230.25
2018-09-22T23:19:13.513Z,100221.33
2018-09-22T23:21:42.482Z,100210.69
2018-09-22T23:24:11.469Z,100204.02
2018-09-22T23:26:40.438Z,100198.70
2018-09-22T23:29:09.422Z,100209.38
2018-09-22T23:31:38.486Z,100188.72
2018-09-22T23:34:07.468Z,100199.16
2018-09-22T23:36:36.438Z,100200.71
2018-09-22T23:39:07.329Z,100196.33
2018-09-22T23:41:36.306Z,100173.18
2018-09-22T23:44:05.301Z,100175.91
2018-09-22T23:46:34.281Z,100176.77
2018-09-22T23:49:03.277Z,100182.20
2018-09-22T23:51:32.486Z,100182.55
2018-09-22T23:54:01.470Z,100181.38
2018-09-22T23:56:30.486Z,100175.54
2018-09-22T23:58:59.481Z,100169.27
